Time;durP1;ratioP1;P1;durP2;ratioP2;P2;SDS_P1;SDS_P2;PMS_P1;PMS_P2;Temp;Humidity;BMP_temperature;BMP_pressure;BME280_temperature;BME280_humidity;BME280_pressure;Samples;Min_cycle;Max_cycle;Signal;HPM_P1;HPM_P2
2022/09/23 00:00:32;;;;;;;;;;;;;;;17.84;52.14;101516.28;5029860;28;20414;-88
2022/09/23 00:02:58;;;;;;;2.20;2.00;;;;;;;17.72;52.01;101506.97;5032200;28;19909;-88
2022/09/23 00:05:29;;;;;;;2.45;1.70;;;;;;;17.81;52.21;101517.84;4998289;28;20530;-88
2022/09/23 00:07:56;;;;;;;2.13;1.80;;;;;;;17.84;51.74;101520.63;5032218;28;20483;-88
2022/09/23 00:10:24;;;;;;;2.00;1.80;;;;;;;17.81;52.15;101510.81;5027582;28;20056;-89
2022/09/23 00:12:50;;;;;;;2.15;1.90;;;;;;;17.83;52.08;101522.38;5032275;28;20187;-88
2022/09/23 00:15:16;;;;;;;3.90;1.83;;;;;;;17.82;52.00;101519.66;5031160;28;20505;-88
2022/09/23 00:17:42;;;;;;;2.22;1.80;;;;;;;17.87;51.85;101513.72;5035210;28;20036;-88
2022/09/23 00:20:09;;;;;;;2.38;2.00;;;;;;;17.88;51.80;101522.53;5020147;28;20116;-89
2022/09/23 00:22:37;;;;;;;2.35;1.83;;;;;;;17.84;51.93;101518.00;5036188;28;20034;-89
2022/09/23 00:25:08;;;;;;;2.42;2.00;;;;;;;17.83;51.87;101530.31;5014083;28;20032;-89
2022/09/23 00:27:34;;;;;;;2.08;1.80;;;;;;;17.69;51.99;101508.66;5045858;28;20537;-88
2022/09/23 00:30:00;;;;;;;1.88;1.77;;;;;;;17.72;52.16;101517.53;4997326;28;20068;-88
2022/09/23 00:32:26;;;;;;;2.90;1.70;;;;;;;17.75;52.13;101522.91;5031669;28;20034;-88
2022/09/23 00:34:53;;;;;;;2.10;1.90;;;;;;;17.74;52.19;101521.09;5039555;28;20054;-88
2022/09/23 00:37:20;;;;;;;2.55;1.85;;;;;;;17.72;51.96;101510.50;5031320;28;20056;-88
2022/09/23 00:39:45;;;;;;;2.00;1.80;;;;;;;17.58;51.97;101483.56;5014127;28;20065;-88
2022/09/23 00:42:19;;;;;;;2.30;2.10;;;;;;;17.77;52.02;101514.19;5031710;28;20056;-87
2022/09/23 00:44:55;;;;;;;2.10;1.90;;;;;;;17.75;52.01;101523.81;5013922;28;20522;-88
2022/09/23 00:47:27;;;;;;;1.58;1.48;;;;;;;17.77;51.85;101518.59;5035969;28;20064;-87
2022/09/23 00:50:07;;;;;;;2.10;1.90;;;;;;;17.75;52.07;101513.25;5031472;28;20028;-88
2022/09/23 00:52:33;;;;;;;3.40;1.95;;;;;;;17.69;52.15;101508.66;5044408;28;20118;-87
2022/09/23 00:55:02;;;;;;;1.92;1.77;;;;;;;17.69;51.90;101507.72;4998233;28;20025;-88
2022/09/23 00:57:30;;;;;;;2.20;1.80;;;;;;;17.61;52.05;101498.63;5013225;28;20036;-87
2022/09/23 00:59:56;;;;;;;2.17;1.70;;;;;;;17.67;51.55;101489.22;5031223;28;20032;-87
2022/09/23 01:02:22;;;;;;;2.47;1.65;;;;;;;17.75;51.80;101515.00;5031501;28;20538;-88
2022/09/23 01:04:49;;;;;;;2.10;1.70;;;;;;;17.77;51.69;101513.31;5030994;28;20034;-87
2022/09/23 01:07:15;;;;;;;1.80;1.50;;;;;;;17.71;51.88;101521.91;5037458;28;20032;-88
2022/09/23 01:09:41;;;;;;;1.85;1.45;;;;;;;17.63;52.00;101503.13;5036602;28;20545;-85
2022/09/23 01:12:29;;;;;;;1.70;1.50;;;;;;;17.73;52.12;101519.31;5031514;28;20443;-88
2022/09/23 01:15:01;;;;;;;1.67;1.58;;;;;;;17.70;51.96;101507.78;5030580;28;20033;-88
2022/09/23 01:17:26;;;;;;;1.98;1.80;;;;;;;17.79;51.74;101515.16;5022406;28;20480;-88
2022/09/23 01:20:01;;;;;;;1.83;1.73;;;;;;;17.78;51.70;101517.72;5032186;28;20051;-88
2022/09/23 01:22:26;;;;;;;1.75;1.65;;;;;;;17.81;51.69;101508.19;5031337;28;20025;-88
2022/09/23 01:25:12;;;;;;;1.65;1.50;;;;;;;17.68;51.92;101513.88;5031281;28;20094;-89
2022/09/23 01:27:58;;;;;;;1.70;1.60;;;;;;;17.72;51.89;101507.84;5031156;28;20033;-89
2022/09/23 01:30:48;;;;;;;2.08;1.52;;;;;;;17.72;51.73;101509.63;5035223;28;20483;-88
2022/09/23 01:33:24;;;;;;;2.00;1.80;;;;;;;17.66;51.73;101505.88;5035509;28;20553;-89
2022/09/23 01:36:01;;;;;;;1.80;1.70;;;;;;;17.68;52.18;101503.31;5017136;28;20025;-89
2022/09/23 01:38:37;;;;;;;1.95;1.58;;;;;;;17.52;52.07;101485.09;5017389;28;20025;-89
2022/09/23 01:41:31;;;;;;;1.70;1.60;;;;;;;17.63;51.92;101502.22;5035078;28;20021;-89
2022/09/23 01:43:59;;;;;;;1.60;1.50;;;;;;;17.66;51.95;101507.63;5016286;28;20103;-89
2022/09/23 01:46:51;;;;;;;1.65;1.55;;;;;;;17.65;51.83;101513.75;5017061;28;20120;-89
2022/09/23 01:49:40;;;;;;;1.95;1.75;;;;;;;17.62;52.01;101513.63;5037341;28;20021;-89
2022/09/23 01:52:37;;;;;;;1.40;1.30;;;;;;;17.64;52.00;101518.13;5041228;28;20014;-88
2022/09/23 01:55:38;;;;;;;2.03;1.67;;;;;;;17.55;52.10;101506.34;5032301;28;20038;-89
2022/09/23 01:58:11;;;;;;;1.65;1.50;;;;;;;17.62;51.78;101518.94;5060187;28;20466;-88
2022/09/23 02:00:39;;;;;;;1.70;1.60;;;;;;;17.61;51.93;101519.75;5017835;28;20041;-89
2022/09/23 02:03:16;;;;;;;2.03;1.65;;;;;;;17.58;52.00;101524.94;5034818;28;20048;-88
2022/09/23 02:05:57;;;;;;;1.60;1.50;;;;;;;17.56;52.33;101523.97;5015979;28;20514;-90
2022/09/23 02:08:40;;;;;;;1.70;1.45;;;;;;;17.53;52.12;101516.84;5003551;28;20584;-89
2022/09/23 02:11:09;;;;;;;2.60;1.70;;;;;;;17.58;52.03;101523.19;5017105;28;20499;-88
2022/09/23 02:13:40;;;;;;;2.58;1.40;;;;;;;17.57;51.94;101520.47;5031625;28;20040;-88
2022/09/23 02:16:34;;;;;;;1.77;1.60;;;;;;;17.54;52.10;101523.91;5033705;28;20036;-88
2022/09/23 02:19:07;;;;;;;1.40;1.25;;;;;;;17.56;51.93;101516.94;5032052;28;20038;-88
2022/09/23 02:21:36;;;;;;;1.50;1.40;;;;;;;17.53;51.93;101513.31;5028453;28;20479;-85
2022/09/23 02:24:10;;;;;;;1.90;1.42;;;;;;;17.49;52.08;101499.97;5016261;28;20457;-85
2022/09/23 02:26:45;;;;;;;1.85;1.50;;;;;;;17.56;52.33;101514.31;5028619;28;20482;-89
2022/09/23 02:29:33;;;;;;;1.92;1.52;;;;;;;17.52;52.13;101506.22;5016479;28;20037;-87
2022/09/23 02:31:58;;;;;;;;;;;;;;;17.59;51.98;101510.88;5016575;28;20083;-88
2022/09/23 02:34:31;;;;;;;1.50;1.40;;;;;;;17.54;51.93;101512.44;5026863;28;20007;-87
2022/09/23 02:37:24;;;;;;;1.42;1.33;;;;;;;17.50;52.08;101516.72;5016301;28;20074;-89
2022/09/23 02:40:22;;;;;;;1.60;1.50;;;;;;;17.49;52.36;101522.84;5015215;28;20456;-88
2022/09/23 02:42:57;;;;;;;1.52;1.42;;;;;;;17.50;51.96;101517.63;5016110;28;20041;-88
2022/09/23 02:45:24;;;;;;;1.95;1.40;;;;;;;17.46;52.00;101506.88;5042996;28;20037;-89
2022/09/23 02:47:54;;;;;;;1.77;1.50;;;;;;;17.32;52.27;101492.28;5029221;28;20018;-89
2022/09/23 02:50:21;;;;;;;1.60;1.50;;;;;;;17.39;52.28;101511.03;5014603;28;20474;-85
2022/09/23 02:52:47;;;;;;;2.35;1.58;;;;;;;17.47;52.19;101527.16;5022578;28;20450;-88
2022/09/23 02:55:16;;;;;;;1.50;1.40;;;;;;;17.45;52.05;101529.75;5010568;28;20033;-88
2022/09/23 02:57:41;;;;;;;1.40;1.30;;;;;;;17.47;51.83;101520.13;5012744;28;20040;-88
2022/09/23 03:00:07;;;;;;;1.60;1.50;;;;;;;17.34;52.15;101499.41;5015084;28;20026;-87
2022/09/23 03:02:40;;;;;;;;;;;;;;;17.46;52.22;101528.00;5009975;28;20751;-88
2022/09/23 03:05:33;;;;;;;1.52;1.42;;;;;;;17.37;52.18;101515.34;5004760;28;19914;-89
2022/09/23 03:07:59;;;;;;;1.52;1.40;;;;;;;17.41;52.20;101526.94;5015303;28;20018;-88
2022/09/23 03:10:44;;;;;;;1.55;1.45;;;;;;;17.39;52.26;101523.34;5024814;28;20103;-90
2022/09/23 03:13:21;;;;;;;1.77;1.40;;;;;;;17.42;51.97;101524.34;5013800;28;20030;-90
2022/09/23 03:16:11;;;;;;;1.50;1.40;;;;;;;17.39;51.92;101507.50;5012871;28;20033;-90
2022/09/23 03:18:50;;;;;;;1.42;1.33;;;;;;;17.43;52.07;101522.63;5015533;28;20129;-89
2022/09/23 03:21:23;;;;;;;2.35;1.55;;;;;;;17.39;52.10;101520.69;5019173;28;20044;-84
2022/09/23 03:23:49;;;;;;;1.63;1.50;;;;;;;17.36;52.04;101523.22;5013251;28;20033;-88
2022/09/23 03:26:23;;;;;;;2.45;1.58;;;;;;;17.35;52.17;101527.59;5023330;28;20021;-89
2022/09/23 03:28:49;;;;;;;2.10;1.67;;;;;;;17.23;52.08;101514.84;5017830;28;20065;-89
2022/09/23 03:31:16;;;;;;;1.70;1.60;;;;;;;17.34;52.33;101527.56;5023480;28;20551;-89
2022/09/23 03:33:56;;;;;;;1.85;1.60;;;;;;;17.39;52.29;101534.78;5023208;28;20491;-91
2022/09/23 03:39:16;;;;;;;1.92;1.50;;;;;;;17.34;51.98;101533.72;5011944;28;20514;-90
2022/09/23 03:41:49;;;;;;;1.92;1.83;;;;;;;17.35;52.14;101534.63;5012724;28;20018;-89
2022/09/23 03:44:16;;;;;;;2.03;1.63;;;;;;;17.30;52.22;101527.41;5023993;28;20029;-87
2022/09/23 03:46:48;;;;;;;1.70;1.60;;;;;;;17.33;52.35;101542.47;5021943;28;20508;-89
2022/09/23 03:49:20;;;;;;;1.70;1.50;;;;;;;17.33;52.27;101541.56;5012700;28;20061;-89
2022/09/23 03:51:47;;;;;;;1.58;1.48;;;;;;;17.28;52.21;101530.84;5004656;28;20022;-89
2022/09/23 03:54:12;;;;;;;1.98;1.65;;;;;;;17.15;52.20;101504.81;5026220;28;20088;-89
2022/09/23 03:56:38;;;;;;;2.05;1.75;;;;;;;17.30;52.17;101531.81;5010784;28;20029;-89
2022/09/23 03:59:04;;;;;;;1.52;1.42;;;;;;;17.38;52.10;101540.03;5032843;28;20495;-89
2022/09/23 04:01:32;;;;;;;2.05;1.60;;;;;;;17.34;52.06;101536.38;5031998;28;20045;-88
2022/09/23 04:03:58;;;;;;;2.03;1.60;;;;;;;17.20;52.39;101519.97;4995530;28;20496;-89
2022/09/23 04:06:24;;;;;;;2.30;1.35;;;;;;;17.27;52.22;101543.16;5012605;28;20037;-89
2022/09/23 04:08:51;;;;;;;2.10;1.50;;;;;;;17.27;52.18;101539.59;5031062;28;20055;-89
2022/09/23 04:11:16;;;;;;;1.70;1.60;;;;;;;17.20;52.30;101524.38;5031926;28;20442;-89
2022/09/23 04:13:42;;;;;;;2.80;1.83;;;;;;;17.06;52.07;101498.34;4992226;28;20025;-88
2022/09/23 04:16:09;;;;;;;1.55;1.40;;;;;;;17.30;52.17;101540.63;5034640;28;20029;-89
2022/09/23 04:18:35;;;;;;;1.65;1.50;;;;;;;17.30;52.08;101540.63;5034263;28;20025;-88
2022/09/23 04:21:02;;;;;;;1.80;1.50;;;;;;;17.25;52.23;101531.63;5041024;28;20079;-88
2022/09/23 04:23:27;;;;;;;1.63;1.52;;;;;;;17.17;52.18;101518.97;5031995;28;20045;-88
2022/09/23 04:25:53;;;;;;;1.60;1.50;;;;;;;17.27;52.06;101547.50;5016273;28;20048;-89
2022/09/23 04:28:20;;;;;;;1.50;1.40;;;;;;;17.33;51.98;101546.84;5030814;28;20029;-89
2022/09/23 04:30:47;;;;;;;2.40;1.50;;;;;;;17.16;52.13;101533.00;5019906;28;20037;-88
2022/09/23 04:33:14;;;;;;;1.67;1.40;;;;;;;17.13;52.08;101532.91;5037150;28;20029;-88
2022/09/23 04:35:42;;;;;;;2.58;1.40;;;;;;;17.17;52.41;101548.00;5041882;28;20044;-89
2022/09/23 04:38:09;;;;;;;1.60;1.50;;;;;;;17.20;52.17;101554.28;5042420;28;20070;-88
2022/09/23 04:40:35;;;;;;;1.27;1.17;;;;;;;17.21;52.11;101556.09;5039538;28;20406;-88
2022/09/23 04:43:01;;;;;;;1.40;1.30;;;;;;;17.13;52.46;101552.25;5035647;28;20495;-90
2022/09/23 04:45:26;;;;;;;1.75;1.50;;;;;;;17.00;52.27;101527.13;5027960;28;20025;-89
2022/09/23 04:47:52;;;;;;;1.60;1.50;;;;;;;17.18;52.23;101563.88;5030352;28;20076;-89
2022/09/23 04:50:19;;;;;;;1.60;1.50;;;;;;;17.19;52.16;101568.34;5032717;28;20057;-89
2022/09/23 04:52:44;;;;;;;1.65;1.55;;;;;;;17.18;52.43;101573.56;5030992;28;20038;-85
2022/09/23 04:55:10;;;;;;;2.10;1.67;;;;;;;17.18;52.25;101578.81;5029219;28;20108;-78
2022/09/23 04:57:35;;;;;;;1.75;1.65;;;;;;;17.16;52.47;101577.88;5030085;28;20032;-81
2022/09/23 05:00:01;;;;;;;1.63;1.52;;;;;;;17.15;52.31;101576.97;5031106;28;20021;-82
2022/09/23 05:02:27;;;;;;;1.90;1.60;;;;;;;17.19;52.49;101580.66;5029910;28;20095;-80
2022/09/23 05:04:53;;;;;;;1.58;1.45;;;;;;;17.15;52.24;101584.91;5035598;28;20053;-80
2022/09/23 05:07:19;;;;;;;1.65;1.55;;;;;;;17.08;52.59;101574.91;5030682;28;20033;-82
2022/09/23 05:09:45;;;;;;;1.85;1.42;;;;;;;17.15;52.27;101579.63;5032180;28;20029;-82
2022/09/23 05:12:10;;;;;;;2.50;1.83;;;;;;;17.14;52.34;101579.53;5013662;28;20075;-82
2022/09/23 05:14:37;;;;;;;1.58;1.48;;;;;;;17.12;52.73;101581.22;5004868;28;20057;-82
2022/09/23 05:17:04;;;;;;;1.70;1.60;;;;;;;17.07;52.37;101584.56;5019722;28;20091;-82
2022/09/23 05:19:30;;;;;;;1.42;1.33;;;;;;;17.03;52.53;101587.91;5028836;28;20092;-78
2022/09/23 05:21:55;;;;;;;1.65;1.33;;;;;;;17.00;52.71;101577.25;5041660;28;20116;-78
2022/09/23 05:24:23;;;;;;;2.90;1.85;;;;;;;17.09;52.59;101587.28;5042783;28;20113;-78
2022/09/23 05:26:50;;;;;;;1.95;1.50;;;;;;;17.08;52.78;101596.94;5034858;28;20424;-78
2022/09/23 05:29:16;;;;;;;1.65;1.55;;;;;;;17.09;52.58;101587.28;5029349;28;20033;-78
2022/09/23 05:31:42;;;;;;;1.65;1.55;;;;;;;17.06;52.38;101587.16;5031414;28;20025;-78
2022/09/23 05:34:07;;;;;;;1.92;1.67;;;;;;;17.07;52.71;101592.50;5030499;28;20033;-78
2022/09/23 05:36:35;;;;;;;1.70;1.60;;;;;;;17.08;52.69;101593.38;5033745;28;20036;-79
2022/09/23 05:39:01;;;;;;;2.10;1.42;;;;;;;17.07;52.88;101603.03;5030125;28;20100;-76
2022/09/23 05:41:26;;;;;;;1.65;1.55;;;;;;;17.05;52.88;101603.81;5037981;28;20454;-78
2022/09/23 05:43:53;;;;;;;1.58;1.48;;;;;;;17.07;52.84;101621.50;5031242;28;20037;-78
2022/09/23 05:46:23;;;;;;;1.70;1.60;;;;;;;17.01;52.86;101605.44;5033107;28;20112;-78
2022/09/23 05:48:49;;;;;;;1.63;1.52;;;;;;;17.00;52.92;101597.47;5030804;28;20109;-79
2022/09/23 05:51:20;;;;;;;1.67;1.50;;;;;;;17.01;53.00;101613.34;5016224;28;20104;-79
2022/09/23 05:53:46;;;;;;;1.70;1.60;;;;;;;17.01;53.04;101613.34;5026221;28;20041;-78
2022/09/23 05:56:13;;;;;;;1.60;1.50;;;;;;;16.98;53.22;101607.97;5030543;28;20506;-79
2022/09/23 05:58:39;;;;;;;2.13;1.65;;;;;;;16.96;53.31;101603.47;5029677;28;20087;-80
2022/09/23 06:01:13;;;;;;;2.22;2.00;;;;;;;17.01;53.00;101617.72;5031800;28;20022;-79
2022/09/23 06:03:39;;;;;;;4.43;1.55;;;;;;;16.98;53.14;101605.31;5011470;28;20083;-79
2022/09/23 06:06:05;;;;;;;;;;;;;;;17.00;53.15;101611.56;5038036;28;20071;-79
2022/09/23 06:08:33;;;;;;;3.33;1.75;;;;;;;16.91;53.09;101599.72;5030119;28;19917;-80
2022/09/23 06:11:06;;;;;;;11.90;2.60;;;;;;;17.02;52.96;101615.16;5032581;28;20049;-79
2022/09/23 06:13:36;;;;;;;11.55;2.22;;;;;;;16.97;53.21;101623.72;5028669;28;20021;-80
2022/09/23 06:16:13;;;;;;;5.82;1.75;;;;;;;17.00;52.97;101608.91;5033619;28;20091;-79
2022/09/23 06:18:40;;;;;;;6.50;1.88;;;;;;;17.02;53.08;101616.91;5033957;28;20095;-80
2022/09/23 06:21:07;;;;;;;3.95;1.95;;;;;;;17.00;53.20;101615.94;5034126;28;20108;-80
2022/09/23 06:23:32;;;;;;;6.47;2.03;;;;;;;16.98;53.17;101609.69;5016062;28;20075;-80
2022/09/23 06:26:03;;;;;;;6.15;1.80;;;;;;;17.02;53.09;101609.00;5042386;28;20017;-79
2022/09/23 06:28:31;;;;;;;4.80;1.77;;;;;;;16.94;53.23;101608.66;5040243;28;20033;-79
2022/09/23 06:30:58;;;;;;;3.65;1.92;;;;;;;16.92;53.34;101605.06;5002761;28;20044;-80
2022/09/23 06:33:24;;;;;;;4.20;2.00;;;;;;;16.95;53.34;101612.19;5028437;28;20100;-79
2022/09/23 06:35:53;;;;;;;;;;;;;;;16.99;53.27;101617.66;5032436;28;20026;-79
2022/09/23 06:38:19;;;;;;;3.90;1.77;;;;;;;16.76;53.38;101573.56;5033842;28;19909;-80
2022/09/23 06:40:49;;;;;;;1.92;1.70;;;;;;;16.88;53.44;101605.78;5033541;28;20032;-80
2022/09/23 06:43:14;;;;;;;1.85;1.67;;;;;;;16.97;53.34;101615.81;5033789;28;20522;-81
2022/09/23 06:45:40;;;;;;;2.67;1.88;;;;;;;16.92;53.30;101604.16;5046645;28;20169;-80
2022/09/23 06:48:08;;;;;;;3.38;1.60;;;;;;;16.93;53.53;101612.13;5037701;28;20032;-80
2022/09/23 06:50:34;;;;;;;4.35;1.85;;;;;;;16.97;53.38;101618.44;5049482;28;20039;-81
2022/09/23 06:52:59;;;;;;;;;;;;;;;16.99;53.45;101622.03;5035453;28;20052;-80
2022/09/23 06:55:26;;;;;;;3.45;1.80;;;;;;;16.96;53.27;101617.53;5032820;28;19996;-79
2022/09/23 06:57:53;;;;;;;2.38;1.70;;;;;;;16.98;53.45;101612.34;5026750;28;20026;-79
2022/09/23 07:00:19;;;;;;;2.08;1.75;;;;;;;16.94;53.40;101610.41;5033131;28;20522;-80
2022/09/23 07:02:45;;;;;;;1.98;1.50;;;;;;;16.94;53.50;101602.50;5044800;28;20052;-79
2022/09/23 07:05:11;;;;;;;2.70;1.90;;;;;;;16.98;53.46;101614.97;5034126;28;20162;-80
2022/09/23 07:07:37;;;;;;;1.98;1.70;;;;;;;16.98;53.61;101612.34;5034342;28;20067;-79
2022/09/23 07:10:04;;;;;;;2.58;1.80;;;;;;;16.92;53.42;101601.53;5041746;28;20116;-79
2022/09/23 07:12:48;;;;;;;2.83;1.70;;;;;;;16.96;53.54;101603.47;5031052;28;20036;-80
2022/09/23 07:15:17;;;;;;;1.73;1.50;;;;;;;16.94;53.51;101602.50;5007621;28;20056;-80
2022/09/23 07:17:42;;;;;;;2.63;1.80;;;;;;;16.75;53.72;101562.13;5015707;28;20187;-79
2022/09/23 07:20:10;;;;;;;2.30;1.67;;;;;;;16.97;53.57;101603.50;5033179;28;20021;-79
2022/09/23 07:22:36;;;;;;;2.33;1.70;;;;;;;16.93;53.60;101606.84;5032983;28;20037;-80
2022/09/23 07:25:03;;;;;;;2.22;1.70;;;;;;;16.91;53.65;101605.00;5032484;28;20029;-80
2022/09/23 07:27:29;;;;;;;1.98;1.70;;;;;;;17.02;53.47;101609.00;5027856;28;20032;-81
2022/09/23 07:29:55;;;;;;;1.77;1.67;;;;;;;16.94;53.38;101591.94;5016567;28;20021;-79
2022/09/23 07:32:21;;;;;;;2.08;1.90;;;;;;;16.99;53.55;101616.75;5016788;28;20116;-80
2022/09/23 07:34:48;;;;;;;2.22;2.03;;;;;;;16.97;53.58;101613.16;5014739;28;20079;-78
2022/09/23 07:37:13;;;;;;;;;;;;;;;16.98;53.55;101614.97;4982759;28;20105;-80
2022/09/23 07:39:40;;;;;;;3.05;1.92;;;;;;;17.00;53.59;101614.19;5028382;28;20015;-80
2022/09/23 07:42:06;;;;;;;2.97;1.90;;;;;;;16.93;53.71;101598.94;5046249;28;20024;-80
2022/09/23 07:44:32;;;;;;;2.33;1.88;;;;;;;16.98;53.73;101620.25;5031216;28;20017;-79
2022/09/23 07:46:58;;;;;;;2.17;1.90;;;;;;;16.99;53.65;101614.13;5025423;28;20077;-80
2022/09/23 07:49:25;;;;;;;3.05;1.77;;;;;;;16.72;53.70;101569.00;5035892;28;20025;-80
2022/09/23 07:51:51;;;;;;;;;;;;;;;16.99;53.61;101615.03;5033121;28;20083;-79
2022/09/23 07:54:18;;;;;;;2.70;1.70;;;;;;;16.97;53.65;101626.34;5031072;28;19917;-80
2022/09/23 07:56:44;;;;;;;3.70;1.90;;;;;;;16.98;53.83;101617.63;5028431;28;20138;-79
2022/09/23 07:59:14;;;;;;;1.90;1.75;;;;;;;16.97;53.73;101619.34;5031104;28;20514;-79
2022/09/23 08:01:57;;;;;;;2.03;1.83;;;;;;;16.98;53.66;101625.53;5038203;28;20057;-79
2022/09/23 08:04:27;;;;;;;2.60;1.80;;;;;;;16.98;53.72;101620.25;5022689;28;20505;-80
2022/09/23 08:07:00;;;;;;;3.00;1.88;;;;;;;16.98;53.67;101615.88;5030297;28;20025;-80
2022/09/23 08:09:28;;;;;;;1.77;1.67;;;;;;;16.98;53.76;101615.88;5041531;28;20106;-79
2022/09/23 08:11:54;;;;;;;3.08;1.95;;;;;;;16.99;53.65;101616.75;5023855;28;20155;-79
2022/09/23 08:14:21;;;;;;;2.15;1.80;;;;;;;17.00;53.80;101615.94;5031131;28;20112;-80
2022/09/23 08:16:46;;;;;;;2.40;1.70;;;;;;;16.98;53.76;101617.63;5031728;28;20086;-79
2022/09/23 08:19:13;;;;;;;3.83;1.80;;;;;;;16.99;53.68;101627.31;5014286;28;20112;-80
2022/09/23 08:21:40;;;;;;;3.33;2.10;;;;;;;16.98;53.79;101620.25;5014085;28;20034;-79
2022/09/23 08:24:07;;;;;;;2.35;1.70;;;;;;;16.98;53.84;101625.53;5025321;28;20033;-79
2022/09/23 08:26:33;;;;;;;1.70;1.60;;;;;;;16.97;53.77;101619.34;5026680;28;20040;-79
2022/09/23 08:28:59;;;;;;;2.00;1.80;;;;;;;16.98;53.89;101626.44;5047845;28;20052;-80
2022/09/23 08:31:24;;;;;;;1.75;1.65;;;;;;;16.99;53.78;101622.03;5031738;28;20068;-79
2022/09/23 08:33:54;;;;;;;1.90;1.73;;;;;;;16.95;53.80;101618.38;5025049;28;20087;-80
2022/09/23 08:36:20;;;;;;;3.00;1.80;;;;;;;16.94;53.93;101616.59;5029728;28;20033;-79
2022/09/23 08:38:45;;;;;;;2.20;1.77;;;;;;;17.01;53.85;101618.63;5029426;28;20045;-80
2022/09/23 08:41:32;;;;;;;1.80;1.70;;;;;;;17.03;53.81;101621.34;5029853;28;20021;-80
2022/09/23 08:44:03;;;;;;;3.20;1.77;;;;;;;17.01;53.87;101626.53;5021193;28;20037;-80
2022/09/23 08:46:34;;;;;;;2.35;1.60;;;;;;;17.03;53.83;101618.69;5012048;28;20079;-80
2022/09/23 08:49:00;;;;;;;1.92;1.70;;;;;;;16.96;53.77;101609.63;5029656;28;20533;-79
2022/09/23 08:51:34;;;;;;;1.80;1.70;;;;;;;17.03;53.83;101616.94;5013288;28;20018;-80
2022/09/23 08:54:43;;;;;;;1.63;1.52;;;;;;;17.01;54.15;101621.25;5031066;28;20073;-80
2022/09/23 08:57:35;;;;;;;1.90;1.80;;;;;;;16.99;53.94;101612.38;5023732;28;20482;-79
2022/09/23 09:00:02;;;;;;;2.55;1.92;;;;;;;17.04;53.86;101617.88;5019162;28;20098;-80
2022/09/23 09:02:28;;;;;;;2.20;2.00;;;;;;;17.01;53.91;101610.72;5032265;28;20053;-81
2022/09/23 09:04:58;;;;;;;1.60;1.50;;;;;;;17.04;53.90;101608.22;5009693;28;20112;-80
2022/09/23 09:07:30;;;;;;;1.90;1.70;;;;;;;17.04;53.99;101608.22;5013668;28;20033;-80
2022/09/23 09:10:32;;;;;;;2.00;1.80;;;;;;;17.05;53.87;101601.19;5014265;28;20021;-80
2022/09/23 09:13:33;;;;;;;1.70;1.60;;;;;;;17.05;nan;101601.19;4922528;29;20054;-80
2022/09/23 09:16:13;;;;;;;3.25;1.80;;;;;;;17.06;53.91;101605.66;5016310;28;20052;-80
2022/09/23 09:18:48;;;;;;;2.13;1.65;;;;;;;17.02;53.98;101599.34;5019251;28;20056;-80
2022/09/23 09:21:14;;;;;;;1.65;1.55;;;;;;;17.01;54.01;101592.22;5009852;28;20021;-80
2022/09/23 09:23:46;;;;;;;1.60;1.50;;;;;;;16.96;54.16;101590.28;5029860;28;20206;-80
2022/09/23 09:26:31;;;;;;;2.60;1.88;;;;;;;17.04;54.12;101597.66;5040064;28;20090;-80
2022/09/23 09:29:13;;;;;;;2.05;1.77;;;;;;;17.03;54.00;101606.41;4983120;28;20029;-80
2022/09/23 09:31:42;;;;;;;2.00;1.60;;;;;;;17.04;53.96;101605.56;5014444;28;20064;-80
2022/09/23 09:34:28;;;;;;;2.75;1.63;;;;;;;17.08;54.09;101606.56;5032045;28;20068;-80
2022/09/23 09:37:05;;;;;;;1.60;1.50;;;;;;;17.05;54.17;101612.63;5020403;28;20113;-80
2022/09/23 09:39:31;;;;;;;1.70;1.60;;;;;;;16.96;54.01;101595.53;5017476;28;20021;-80
2022/09/23 09:41:58;;;;;;;1.85;1.73;;;;;;;17.03;54.06;101601.13;5030402;28;20064;-80
2022/09/23 09:44:38;;;;;;;2.13;1.60;;;;;;;17.04;54.04;101602.94;5032893;28;20049;-80
2022/09/23 09:47:27;;;;;;;1.60;1.50;;;;;;;17.03;54.20;101603.75;5012902;28;20499;-80
2022/09/23 09:50:08;;;;;;;2.80;1.58;;;;;;;17.04;54.20;101602.03;5034858;28;20087;-79
2022/09/23 09:52:34;;;;;;;1.70;1.60;;;;;;;17.03;54.16;101597.59;5037319;28;20035;-80
2022/09/23 09:55:24;;;;;;;1.90;1.65;;;;;;;17.04;54.24;101600.28;5015908;28;20139;-80
2022/09/23 09:58:04;;;;;;;1.88;1.65;;;;;;;17.04;54.16;101610.84;5003052;28;20030;-80
2022/09/23 10:00:29;;;;;;;1.65;1.48;;;;;;;17.05;54.20;101609.09;5013534;28;20026;-79
2022/09/23 10:03:02;;;;;;;2.53;1.45;;;;;;;17.02;54.05;101601.97;5034126;28;20036;-80
2022/09/23 10:05:32;;;;;;;1.92;1.60;;;;;;;17.04;54.19;101600.28;5034510;28;20486;-80
2022/09/23 10:08:25;;;;;;;1.70;1.60;;;;;;;17.04;54.28;101595.03;5031072;28;20422;-80
2022/09/23 10:10:58;;;;;;;1.90;1.73;;;;;;;17.05;54.16;101596.81;5022803;28;20541;-79
2022/09/23 10:13:26;;;;;;;2.25;1.70;;;;;;;17.01;54.12;101588.69;5026501;28;20044;-77
2022/09/23 10:15:56;;;;;;;1.95;1.50;;;;;;;17.06;54.14;101593.34;5016947;28;20034;-80
2022/09/23 10:18:36;;;;;;;2.50;1.73;;;;;;;17.07;54.18;101604.78;5032168;28;20026;-80
2022/09/23 10:21:06;;;;;;;1.60;1.50;;;;;;;17.04;54.34;101596.75;5011092;28;20034;-80
2022/09/23 10:23:32;;;;;;;1.88;1.70;;;;;;;17.05;53.99;101595.91;5033632;28;20518;-81
2022/09/23 10:26:00;;;;;;;1.98;1.80;;;;;;;17.11;54.19;101603.19;5036998;28;20056;-80
2022/09/23 10:28:31;;;;;;;1.52;1.42;;;;;;;17.16;54.05;101606.91;5027020;28;20029;-80
2022/09/23 10:31:32;;;;;;;2.13;1.70;;;;;;;17.09;54.11;101601.38;5029732;28;20022;-79
2022/09/23 10:34:00;;;;;;;1.85;1.63;;;;;;;17.10;53.99;101607.53;5010237;28;20410;-80
2022/09/23 10:36:32;;;;;;;1.83;1.67;;;;;;;17.06;54.21;101600.38;5007800;28;20097;-81
2022/09/23 10:48:26;;;;;;;2.13;1.73;;;;;;;17.12;54.49;101599.69;5034814;28;20040;-80
2022/09/23 10:50:52;;;;;;;2.85;1.85;;;;;;;17.08;54.53;101590.75;5025214;28;20606;-80
2022/09/23 10:53:24;;;;;;;1.67;1.58;;;;;;;17.11;54.47;101587.34;5004325;28;20092;-79
2022/09/23 10:56:03;;;;;;;1.83;1.60;;;;;;;17.09;54.49;101582.00;5013146;28;20038;-80
2022/09/23 10:58:38;;;;;;;2.40;1.65;;;;;;;17.11;54.52;101584.72;4996833;28;20058;-83
2022/09/23 11:01:48;;;;;;;2.47;1.67;;;;;;;17.12;54.41;101574.19;5009243;28;20088;-83
2022/09/23 11:04:32;;;;;;;2.20;1.70;;;;;;;17.11;54.40;101575.06;4993910;28;20034;-82
2022/09/23 11:07:22;;;;;;;2.35;1.40;;;;;;;17.13;54.39;101580.41;5015873;28;20022;-83
2022/09/23 11:10:25;;;;;;;2.65;1.80;;;;;;;17.13;54.35;101575.13;5002467;28;20052;-84
2022/09/23 11:13:06;;;;;;;2.40;1.63;;;;;;;17.09;54.41;101588.16;4997348;28;20021;-82
2022/09/23 11:15:59;;;;;;;1.90;1.70;;;;;;;17.15;54.36;101597.19;5006849;28;20025;-81
2022/09/23 11:18:40;;;;;;;1.98;1.67;;;;;;;17.11;54.49;101598.81;5012962;28;20080;-81
2022/09/23 11:21:48;;;;;;;2.22;1.52;;;;;;;17.12;54.75;101602.34;5010933;28;20026;-82
2022/09/23 11:24:50;;;;;;;3.00;1.90;;;;;;;17.12;54.74;101591.78;5005458;28;20090;-82
2022/09/23 11:27:30;;;;;;;1.92;1.60;;;;;;;17.11;55.06;101595.28;5005152;28;20454;-81
2022/09/23 11:30:06;;;;;;;3.25;1.70;;;;;;;17.15;54.87;101602.47;5004204;28;20030;-81
2022/09/23 11:32:41;;;;;;;1.60;1.50;;;;;;;17.11;55.07;101592.63;5025565;28;20108;-82
2022/09/23 11:35:20;;;;;;;2.65;2.00;;;;;;;17.15;55.06;101578.72;5029664;28;20556;-83
2022/09/23 11:38:01;;;;;;;2.45;2.03;;;;;;;17.16;54.88;101576.13;4992494;28;20602;-82
2022/09/23 11:40:33;;;;;;;1.90;1.55;;;;;;;17.16;54.89;101567.31;5012611;28;20026;-82
2022/09/23 11:43:03;;;;;;;2.83;1.77;;;;;;;17.12;54.91;101546.91;5010505;28;20563;-82
2022/09/23 11:46:00;;;;;;;1.40;1.27;;;;;;;17.20;54.80;101553.41;5012606;28;20499;-82
2022/09/23 11:48:37;;;;;;;1.90;1.35;;;;;;;17.21;54.71;101550.81;4982690;28;20064;-81
2022/09/23 11:51:08;;;;;;;1.80;1.60;;;;;;;17.23;54.66;101550.88;5013034;28;20636;-82
2022/09/23 11:53:42;;;;;;;2.08;1.65;;;;;;;17.27;54.64;101537.88;5010650;28;20045;-82
2022/09/23 11:56:32;;;;;;;1.95;1.52;;;;;;;17.24;54.55;101543.00;5011054;28;20104;-81
2022/09/23 11:59:23;;;;;;;2.63;1.58;;;;;;;17.30;54.53;101537.09;5009775;28;20049;-82
2022/09/23 12:01:52;;;;;;;1.55;1.45;;;;;;;17.36;54.50;101547.00;5000841;28;20531;-82